Time;durP1;ratioP1;P1;durP2;ratioP2;P2;SDS_P1;SDS_P2;PMS_P1;PMS_P2;Temp;Humidity;BMP_temperature;BMP_pressure;BME280_temperature;BME280_humidity;BME280_pressure;Samples;Min_cycle;Max_cycle;Signal;HPM_P1;HPM_P2
2023/05/10 00:01:32;;;;;;;9.37;2.00;;;;;;;;;;5114673;28;20285;-83
2023/05/10 00:03:59;;;;;;;10.13;1.90;;;;;;;;;;5115000;28;20285;-82
2023/05/10 00:06:27;;;;;;;10.87;1.70;;;;;;;;;;5114603;28;20721;-83
2023/05/10 00:08:55;;;;;;;12.33;2.40;;;;;;;;;;5115017;28;20205;-82
2023/05/10 00:11:22;;;;;;;9.83;2.33;;;;;;;;;;5114690;28;20288;-82
2023/05/10 00:13:51;;;;;;;11.40;1.70;;;;;;;;;;5114142;28;20823;-82
2023/05/10 00:16:18;;;;;;;11.20;2.17;;;;;;;;;;5114537;28;20243;-83
2023/05/10 00:18:46;;;;;;;14.67;2.53;;;;;;;;;;5114535;28;20277;-81
2023/05/10 00:21:13;;;;;;;11.87;1.87;;;;;;;;;;5114561;28;20685;-82
2023/05/10 00:23:40;;;;;;;10.63;2.33;;;;;;;;;;5114383;28;20225;-82
2023/05/10 00:26:07;;;;;;;12.80;2.60;;;;;;;;;;5114682;28;20233;-82
2023/05/10 00:28:35;;;;;;;13.13;2.33;;;;;;;;;;5113938;28;20221;-82
2023/05/10 00:31:03;;;;;;;8.63;2.00;;;;;;;;;;5114355;28;20221;-82
2023/05/10 00:33:31;;;;;;;10.03;2.10;;;;;;;;;;5114040;28;20231;-82
2023/05/10 00:35:58;;;;;;;14.70;3.73;;;;;;;;;;5114181;28;20706;-82
2023/05/10 00:38:25;;;;;;;11.17;2.10;;;;;;;;;;5114007;28;20241;-82
2023/05/10 00:40:52;;;;;;;11.10;2.20;;;;;;;;;;5114295;28;20228;-83
2023/05/10 00:43:19;;;;;;;14.67;2.43;;;;;;;;;;5113738;28;20193;-83
2023/05/10 00:45:47;;;;;;;9.63;2.10;;;;;;;;;;5113886;28;20233;-83
2023/05/10 00:48:16;;;;;;;14.50;2.60;;;;;;;;;;5113712;28;20204;-82
2023/05/10 00:50:43;;;;;;;13.70;2.27;;;;;;;;;;5113916;28;20240;-82
2023/05/10 00:53:11;;;;;;;12.83;2.20;;;;;;;;;;5113707;28;20244;-82
2023/05/10 00:55:38;;;;;;;13.57;2.50;;;;;;;;;;5113942;28;20319;-82
2023/05/10 00:58:06;;;;;;;11.83;2.13;;;;;;;;;;5094859;28;20204;-82
2023/05/10 01:00:35;;;;;;;11.97;2.47;;;;;;;;;;5113731;28;20753;-83
2023/05/10 01:03:02;;;;;;;10.23;1.97;;;;;;;;;;5113795;28;20270;-82
2023/05/10 01:05:31;;;;;;;13.87;2.37;;;;;;;;;;5113150;28;20646;-82
2023/05/10 01:07:59;;;;;;;13.40;2.23;;;;;;;;;;5113380;28;20255;-82
2023/05/10 01:10:26;;;;;;;12.63;2.27;;;;;;;;;;5113622;28;20292;-82
2023/05/10 01:12:54;;;;;;;13.47;2.30;;;;;;;;;;5112995;28;20798;-82
2023/05/10 01:15:22;;;;;;;15.87;2.47;;;;;;;;;;5113666;28;20272;-82
2023/05/10 01:17:50;;;;;;;12.97;2.60;;;;;;;;;;5113152;28;20200;-82
2023/05/10 01:20:17;;;;;;;17.23;2.40;;;;;;;;;;5113334;28;20226;-83
2023/05/10 01:22:54;;;;;;;14.90;2.77;;;;;;;;;;5113240;28;20801;-82
2023/05/10 01:25:33;;;;;;;11.67;2.10;;;;;;;;;;5113471;28;20656;-83
2023/05/10 01:28:17;;;;;;;11.33;2.20;;;;;;;;;;5113008;28;20186;-82
2023/05/10 01:31:03;;;;;;;11.30;2.77;;;;;;;;;;5113129;28;20225;-82
2023/05/10 01:33:36;;;;;;;13.37;2.40;;;;;;;;;;5112842;28;20320;-83
2023/05/10 01:36:07;;;;;;;11.97;2.00;;;;;;;;;;5113221;28;20197;-81
2023/05/10 01:38:40;;;;;;;13.30;2.47;;;;;;;;;;5113053;28;20200;-83
2023/05/10 01:41:14;;;;;;;12.17;2.20;;;;;;;;;;5112786;28;20200;-82
2023/05/10 01:43:45;;;;;;;15.80;2.47;;;;;;;;;;5112881;28;20246;-82
2023/05/10 01:46:16;;;;;;;16.77;2.40;;;;;;;;;;5113100;28;20228;-82
2023/05/10 01:48:48;;;;;;;11.47;2.20;;;;;;;;;;5112469;28;20229;-83
2023/05/10 01:51:18;;;;;;;9.40;2.03;;;;;;;;;;5112846;28;20221;-82
2023/05/10 01:53:46;;;;;;;10.80;2.20;;;;;;;;;;5112736;28;20272;-83
2023/05/10 01:56:14;;;;;;;10.63;2.17;;;;;;;;;;5111980;28;20289;-82
2023/05/10 01:58:42;;;;;;;14.03;2.60;;;;;;;;;;5112260;28;20194;-82
2023/05/10 02:01:10;;;;;;;10.73;2.40;;;;;;;;;;5112637;28;20233;-81
2023/05/10 02:03:38;;;;;;;18.33;2.90;;;;;;;;;;5112762;28;20285;-81
2023/05/10 02:06:08;;;;;;;14.13;2.47;;;;;;;;;;5112482;28;20300;-82
2023/05/10 02:08:37;;;;;;;14.37;2.27;;;;;;;;;;5112129;28;20750;-83
2023/05/10 02:11:05;;;;;;;11.90;2.60;;;;;;;;;;5112027;28;20638;-82
2023/05/10 02:13:34;;;;;;;11.37;2.10;;;;;;;;;;5112176;28;20229;-82
2023/05/10 02:16:03;;;;;;;15.07;2.63;;;;;;;;;;5112054;28;20200;-82
2023/05/10 02:18:31;;;;;;;12.53;2.70;;;;;;;;;;5112149;28;20719;-82
2023/05/10 02:21:00;;;;;;;14.03;2.27;;;;;;;;;;5112193;28;20224;-82
2023/05/10 02:23:29;;;;;;;16.13;2.90;;;;;;;;;;5111952;28;20550;-82
2023/05/10 02:25:58;;;;;;;15.83;2.70;;;;;;;;;;5108274;28;20233;-81
2023/05/10 02:28:26;;;;;;;16.53;2.80;;;;;;;;;;5099743;28;20253;-81
2023/05/10 02:30:54;;;;;;;15.30;2.97;;;;;;;;;;5112385;28;20277;-82
2023/05/10 02:33:23;;;;;;;14.63;2.60;;;;;;;;;;5111678;28;20820;-83
2023/05/10 02:35:51;;;;;;;12.40;2.47;;;;;;;;;;5112114;28;20197;-83
2023/05/10 02:38:20;;;;;;;15.27;2.77;;;;;;;;;;5111417;28;20229;-83
2023/05/10 02:40:49;;;;;;;20.67;2.70;;;;;;;;;;5111985;28;20280;-83
2023/05/10 02:43:17;;;;;;;13.67;2.70;;;;;;;;;;5111971;28;20625;-82
2023/05/10 02:45:44;;;;;;;17.17;2.80;;;;;;;;;;5112419;28;20277;-83
2023/05/10 02:48:12;;;;;;;11.93;2.50;;;;;;;;;;5111602;28;20285;-82
2023/05/10 02:50:44;;;;;;;14.00;2.83;;;;;;;;;;5111579;28;20636;-82
2023/05/10 02:53:12;;;;;;;13.33;2.90;;;;;;;;;;5111359;28;20321;-82
2023/05/10 02:55:40;;;;;;;16.17;3.03;;;;;;;;;;5111975;28;20284;-82
2023/05/10 02:58:09;;;;;;;13.67;2.80;;;;;;;;;;5112255;28;20626;-82
2023/05/10 03:00:36;;;;;;;14.40;2.47;;;;;;;;;;5111602;28;20232;-82
2023/05/10 03:03:03;;;;;;;16.07;3.27;;;;;;;;;;5112255;28;20212;-82
2023/05/10 03:05:31;;;;;;;14.53;2.90;;;;;;;;;;5111683;28;20244;-82
2023/05/10 03:07:58;;;;;;;12.70;2.60;;;;;;;;;;5111216;28;20197;-82
2023/05/10 03:10:28;;;;;;;13.80;2.83;;;;;;;;;;5111669;28;20193;-81
2023/05/10 03:13:03;;;;;;;15.90;2.40;;;;;;;;;;5111477;28;20232;-82
2023/05/10 03:15:35;;;;;;;21.93;3.30;;;;;;;;;;5111555;28;20212;-82
2023/05/10 03:18:06;;;;;;;16.37;3.07;;;;;;;;;;5111618;28;20250;-83
2023/05/10 03:20:36;;;;;;;15.00;2.90;;;;;;;;;;5111740;28;20289;-82
2023/05/10 03:23:06;;;;;;;19.87;4.10;;;;;;;;;;5111460;28;20225;-82
2023/05/10 03:25:33;;;;;;;23.60;3.10;;;;;;;;;;5110902;28;20284;-82
2023/05/10 03:28:01;;;;;;;14.20;3.30;;;;;;;;;;5111400;28;20288;-81
2023/05/10 03:30:29;;;;;;;18.93;3.40;;;;;;;;;;5111352;28;20228;-82
2023/05/10 03:32:58;;;;;;;15.43;3.13;;;;;;;;;;5114986;28;20285;-82
2023/05/10 03:35:25;;;;;;;19.23;3.00;;;;;;;;;;5115493;28;20247;-82
2023/05/10 03:37:52;;;;;;;19.37;3.23;;;;;;;;;;5115101;28;20368;-81
2023/05/10 03:40:20;;;;;;;11.40;2.67;;;;;;;;;;5115949;28;20198;-83
2023/05/10 03:42:47;;;;;;;12.73;3.07;;;;;;;;;;5115449;28;20233;-83
2023/05/10 03:45:16;;;;;;;16.50;3.10;;;;;;;;;;5115273;28;20221;-82
2023/05/10 03:47:44;;;;;;;15.27;3.50;;;;;;;;;;5115109;28;20680;-81
2023/05/10 03:50:12;;;;;;;18.63;3.10;;;;;;;;;;5114959;28;20686;-82
2023/05/10 03:52:39;;;;;;;17.57;3.17;;;;;;;;;;5114637;28;20278;-83
2023/05/10 03:55:07;;;;;;;17.30;3.53;;;;;;;;;;5114876;28;20229;-82
2023/05/10 03:57:35;;;;;;;20.50;3.60;;;;;;;;;;5114813;28;20251;-81
2023/05/10 04:00:02;;;;;;;22.30;3.37;;;;;;;;;;5115039;28;20217;-82
2023/05/10 04:02:30;;;;;;;18.07;3.20;;;;;;;;;;5115324;28;20293;-82
2023/05/10 04:04:57;;;;;;;16.70;3.17;;;;;;;;;;5114818;28;20206;-82
2023/05/10 04:07:26;;;;;;;20.40;3.10;;;;;;;;;;5114313;28;20221;-83
2023/05/10 04:09:53;;;;;;;15.93;3.20;;;;;;;;;;5115057;28;20201;-82
2023/05/10 04:12:20;;;;;;;15.27;3.30;;;;;;;;;;5114771;28;20277;-82
2023/05/10 04:14:47;;;;;;;10.50;3.00;;;;;;;;;;5114656;28;20320;-82
2023/05/10 04:17:14;;;;;;;17.93;3.80;;;;;;;;;;5114653;28;20217;-83
2023/05/10 04:19:41;;;;;;;16.97;3.00;;;;;;;;;;5114416;28;20296;-83
2023/05/10 04:22:09;;;;;;;21.67;3.50;;;;;;;;;;5114644;28;20233;-83
2023/05/10 04:24:37;;;;;;;12.03;2.70;;;;;;;;;;5114231;28;20284;-83
2023/05/10 04:27:05;;;;;;;14.97;3.07;;;;;;;;;;5114372;28;20670;-83
2023/05/10 04:29:32;;;;;;;12.80;3.03;;;;;;;;;;5114930;28;20197;-82
2023/05/10 04:32:00;;;;;;;19.87;3.60;;;;;;;;;;5114151;28;20251;-83
2023/05/10 04:34:27;;;;;;;19.27;3.43;;;;;;;;;;5113603;28;20831;-83
2023/05/10 04:36:55;;;;;;;17.43;2.93;;;;;;;;;;5114185;28;20620;-83
2023/05/10 04:39:22;;;;;;;16.70;3.87;;;;;;;;;;5114629;28;20198;-81
2023/05/10 04:41:51;;;;;;;19.07;3.43;;;;;;;;;;5113843;28;20224;-81
2023/05/10 04:44:18;;;;;;;14.97;3.50;;;;;;;;;;5113849;28;20649;-83
2023/05/10 04:46:46;;;;;;;20.00;3.43;;;;;;;;;;5113770;28;20221;-82
2023/05/10 04:49:14;;;;;;;18.33;3.40;;;;;;;;;;5113444;28;20230;-82
2023/05/10 04:51:41;;;;;;;22.40;3.53;;;;;;;;;;5114434;28;20299;-82
2023/05/10 04:54:08;;;;;;;18.90;3.43;;;;;;;;;;5113620;28;20221;-82
2023/05/10 04:56:36;;;;;;;17.13;3.97;;;;;;;;;;5113064;28;20193;-82
2023/05/10 04:59:04;;;;;;;15.47;3.43;;;;;;;;;;5114170;28;20202;-82
2023/05/10 05:01:31;;;;;;;15.93;2.90;;;;;;;;;;5113329;28;20301;-82
2023/05/10 05:03:59;;;;;;;18.53;3.40;;;;;;;;;;5112869;28;20682;-81
2023/05/10 05:06:27;;;;;;;21.80;3.47;;;;;;;;;;5114728;28;20235;-90
2023/05/10 05:08:54;;;;;;;14.57;2.80;;;;;;;;;;5115420;28;20189;-88
2023/05/10 05:11:22;;;;;;;19.00;3.87;;;;;;;;;;5115517;28;20281;-88
2023/05/10 05:13:49;;;;;;;15.90;3.40;;;;;;;;;;5115229;28;20729;-89
2023/05/10 05:16:18;;;;;;;14.90;2.80;;;;;;;;;;5115557;28;20292;-89
2023/05/10 05:18:45;;;;;;;17.00;3.37;;;;;;;;;;5096756;28;20201;-89
2023/05/10 05:21:17;;;;;;;12.33;3.00;;;;;;;;;;5115613;28;20285;-88
2023/05/10 05:23:44;;;;;;;14.27;2.93;;;;;;;;;;5115295;28;20197;-90
2023/05/10 05:26:11;;;;;;;13.50;3.27;;;;;;;;;;5115585;28;20624;-90
2023/05/10 05:28:39;;;;;;;13.67;2.70;;;;;;;;;;5116807;28;20265;-96
2023/05/10 05:31:07;;;;;;;17.90;3.10;;;;;;;;;;5120622;28;20201;-95
2023/05/10 05:33:36;;;;;;;16.83;3.17;;;;;;;;;;5117030;28;20346;-95
2023/05/10 05:36:04;;;;;;;17.53;2.97;;;;;;;;;;5115931;28;20221;-93
2023/05/10 05:38:31;;;;;;;15.20;3.13;;;;;;;;;;5120192;28;20236;-91
2023/05/10 05:40:59;;;;;;;19.83;3.27;;;;;;;;;;5115805;28;20289;-93
2023/05/10 05:43:26;;;;;;;12.10;3.00;;;;;;;;;;5110635;28;20257;-96
2023/05/10 05:45:54;;;;;;;13.13;2.63;;;;;;;;;;5114389;28;20202;-94
2023/05/10 05:48:22;;;;;;;15.17;3.20;;;;;;;;;;5114973;28;20316;-89
2023/05/10 05:50:51;;;;;;;15.67;2.73;;;;;;;;;;5117091;27;20280;-89
2023/05/10 05:53:19;;;;;;;22.80;4.10;;;;;;;;;;5114995;28;20670;-90
2023/05/10 05:55:53;;;;;;;16.67;3.40;;;;;;;;;;5113794;28;20251;-87
2023/05/10 05:58:20;;;;;;;13.07;3.10;;;;;;;;;;5115210;28;20190;-89
2023/05/10 06:00:48;;;;;;;11.87;2.60;;;;;;;;;;5114750;28;20280;-88
2023/05/10 06:03:15;;;;;;;14.87;3.30;;;;;;;;;;5114237;28;20280;-88
2023/05/10 06:05:43;;;;;;;13.97;2.70;;;;;;;;;;5114866;28;20289;-88
2023/05/10 06:08:12;;;;;;;14.77;3.30;;;;;;;;;;5115270;28;20186;-88
2023/05/10 06:10:39;;;;;;;17.03;3.30;;;;;;;;;;5115506;28;20222;-88
2023/05/10 06:13:07;;;;;;;18.73;3.20;;;;;;;;;;5114543;28;20217;-87
2023/05/10 06:15:34;;;;;;;11.87;3.13;;;;;;;;;;5116171;28;20248;-89
2023/05/10 06:18:02;;;;;;;17.63;3.53;;;;;;;;;;5125588;28;20186;-88
2023/05/10 06:20:31;;;;;;;15.97;3.63;;;;;;;;;;5121611;28;20610;-87
2023/05/10 06:22:58;;;;;;;18.27;3.13;;;;;;;;;;5119774;28;20194;-88
2023/05/10 06:25:27;;;;;;;15.10;3.23;;;;;;;;;;5118583;28;20207;-87
2023/05/10 06:27:57;;;;;;;17.77;2.90;;;;;;;;;;5120943;28;20221;-88
2023/05/10 06:30:28;;;;;;;16.70;3.17;;;;;;;;;;5117504;28;20221;-89
2023/05/10 06:32:55;;;;;;;16.73;3.10;;;;;;;;;;5120507;28;20239;-88
2023/05/10 06:35:23;;;;;;;20.97;3.40;;;;;;;;;;5114660;28;20209;-89
2023/05/10 06:37:50;;;;;;;16.60;3.57;;;;;;;;;;5114106;28;20182;-89
2023/05/10 06:40:18;;;;;;;17.37;3.23;;;;;;;;;;5113579;28;20229;-87
2023/05/10 06:42:47;;;;;;;17.17;3.30;;;;;;;;;;5114072;28;20217;-89
2023/05/10 06:45:15;;;;;;;17.70;3.73;;;;;;;;;;5113586;28;20205;-88
2023/05/10 06:47:42;;;;;;;18.63;3.60;;;;;;;;;;5113595;28;20185;-87
2023/05/10 06:50:11;;;;;;;13.50;3.50;;;;;;;;;;5113640;28;20267;-86
2023/05/10 06:52:38;;;;;;;17.23;3.20;;;;;;;;;;5114169;28;20193;-88
2023/05/10 06:55:06;;;;;;;14.17;2.77;;;;;;;;;;5113675;28;20252;-85
2023/05/10 06:57:33;;;;;;;17.23;3.43;;;;;;;;;;5113603;28;20190;-87
2023/05/10 07:00:03;;;;;;;16.40;3.43;;;;;;;;;;5113324;28;20284;-87
2023/05/10 07:02:31;;;;;;;18.00;3.50;;;;;;;;;;5114837;28;20197;-90
2023/05/10 07:04:58;;;;;;;16.20;3.20;;;;;;;;;;5114805;28;20297;-90
2023/05/10 07:07:25;;;;;;;16.77;3.27;;;;;;;;;;5118120;28;20200;-87
2023/05/10 07:09:53;;;;;;;15.37;3.30;;;;;;;;;;5118248;28;20273;-90
2023/05/10 07:12:20;;;;;;;15.03;3.30;;;;;;;;;;5118395;28;20722;-87
2023/05/10 07:14:48;;;;;;;17.07;3.33;;;;;;;;;;5117099;28;20281;-88
2023/05/10 07:17:16;;;;;;;13.93;3.30;;;;;;;;;;5118641;28;20250;-89
2023/05/10 07:19:44;;;;;;;15.63;3.30;;;;;;;;;;5118966;28;20646;-88
2023/05/10 07:22:12;;;;;;;20.33;3.63;;;;;;;;;;5118702;28;20190;-89
2023/05/10 07:24:40;;;;;;;18.67;3.40;;;;;;;;;;5117922;28;20193;-89
2023/05/10 07:27:07;;;;;;;12.90;3.07;;;;;;;;;;5118022;28;20186;-89
2023/05/10 07:29:35;;;;;;;14.50;3.27;;;;;;;;;;5117806;28;20645;-89
2023/05/10 07:32:02;;;;;;;16.90;3.67;;;;;;;;;;5118028;28;20318;-89
2023/05/10 07:34:31;;;;;;;11.23;3.03;;;;;;;;;;5117085;28;20259;-89
2023/05/10 07:36:59;;;;;;;13.00;2.60;;;;;;;;;;5117895;28;20560;-90
2023/05/10 07:39:27;;;;;;;13.70;3.03;;;;;;;;;;5118315;28;20190;-89
2023/05/10 07:41:54;;;;;;;10.63;2.53;;;;;;;;;;5117770;28;20194;-91
2023/05/10 07:44:22;;;;;;;12.73;3.10;;;;;;;;;;5118098;28;20240;-89
2023/05/10 07:46:52;;;;;;;12.60;2.60;;;;;;;;;;5117855;28;20267;-90
2023/05/10 07:49:19;;;;;;;11.90;3.33;;;;;;;;;;5117873;28;20225;-90
2023/05/10 07:51:48;;;;;;;14.47;3.00;;;;;;;;;;5117794;28;20225;-89
2023/05/10 07:54:16;;;;;;;14.77;2.87;;;;;;;;;;5118024;28;20541;-88
2023/05/10 07:56:46;;;;;;;13.60;3.20;;;;;;;;;;5117577;28;20306;-90
2023/05/10 07:59:16;;;;;;;12.10;2.90;;;;;;;;;;5117435;28;20228;-89
2023/05/10 08:01:44;;;;;;;12.40;2.80;;;;;;;;;;5118246;28;20194;-90
2023/05/10 08:04:11;;;;;;;9.40;2.40;;;;;;;;;;5117394;28;20186;-90
2023/05/10 08:06:39;;;;;;;15.90;2.83;;;;;;;;;;5117894;28;20262;-91
2023/05/10 08:09:08;;;;;;;13.03;3.33;;;;;;;;;;5117576;28;20229;-91
2023/05/10 08:11:35;;;;;;;12.10;2.93;;;;;;;;;;5099737;28;20205;-89
2023/05/10 08:14:02;;;;;;;11.43;2.70;;;;;;;;;;5110467;28;20636;-90
2023/05/10 08:16:30;;;;;;;12.13;2.90;;;;;;;;;;5096485;28;20230;-91
2023/05/10 08:18:57;;;;;;;13.40;2.67;;;;;;;;;;5096591;28;20285;-89
2023/05/10 08:21:24;;;;;;;10.07;2.50;;;;;;;;;;5097100;28;20222;-90
2023/05/10 08:23:52;;;;;;;15.93;3.40;;;;;;;;;;5097547;28;20670;-87
2023/05/10 08:26:22;;;;;;;11.27;2.90;;;;;;;;;;5097864;28;20222;-92
2023/05/10 08:28:49;;;;;;;11.67;2.73;;;;;;;;;;5096956;28;20998;-92
2023/05/10 08:31:17;;;;;;;12.67;3.30;;;;;;;;;;5097095;28;20225;-90
2023/05/10 08:33:45;;;;;;;10.20;3.07;;;;;;;;;;5096943;28;20203;-92
2023/05/10 08:36:19;;;;;;;13.00;2.30;;;;;;;;;;5097222;28;20226;-91
2023/05/10 08:38:46;;;;;;;10.85;2.90;;;;;;;;;;5097171;28;20583;-89
2023/05/10 08:41:14;;;;;;;10.40;2.65;;;;;;;;;;5096524;28;20256;-90
2023/05/10 08:43:45;;;;;;;10.23;2.53;;;;;;;;;;5114797;28;20590;-91
2023/05/10 08:46:17;;;;;;;10.23;2.30;;;;;;;;;;5117102;28;20194;-91
2023/05/10 08:48:45;;;;;;;8.85;2.15;;;;;;;;;;5117776;28;20225;-91
2023/05/10 08:51:14;;;;;;;11.67;3.10;;;;;;;;;;5117644;28;20286;-91
2023/05/10 08:53:42;;;;;;;10.30;2.20;;;;;;;;;;5117108;28;20288;-92
2023/05/10 08:56:09;;;;;;;7.68;2.03;;;;;;;;;;5117160;28;20316;-92
2023/05/10 08:58:37;;;;;;;7.22;2.40;;;;;;;;;;5117171;28;20198;-91
2023/05/10 09:01:06;;;;;;;8.03;1.93;;;;;;;;;;5117328;28;20205;-90
2023/05/10 09:03:34;;;;;;;9.75;2.47;;;;;;;;;;5116667;28;20285;-90
2023/05/10 09:06:01;;;;;;;7.47;2.10;;;;;;;;;;5116063;28;20190;-89
2023/05/10 09:08:30;;;;;;;8.48;1.88;;;;;;;;;;5115422;28;20642;-92
2023/05/10 09:10:58;;;;;;;6.35;1.67;;;;;;;;;;5115574;28;20201;-92
2023/05/10 09:13:26;;;;;;;3.55;1.45;;;;;;;;;;5114031;28;20229;-91
2023/05/10 09:15:53;;;;;;;8.85;2.10;;;;;;;;;;5095472;28;20257;-91
2023/05/10 09:18:22;;;;;;;7.75;2.00;;;;;;;;;;5095502;28;20191;-92
2023/05/10 09:20:50;;;;;;;5.43;1.70;;;;;;;;;;5095256;28;20222;-93
2023/05/10 09:23:17;;;;;;;8.43;2.13;;;;;;;;;;5095526;28;20241;-93
2023/05/10 09:25:45;;;;;;;5.25;1.80;;;;;;;;;;5094511;28;20281;-93
2023/05/10 09:28:13;;;;;;;5.15;1.67;;;;;;;;;;5094790;28;20226;-95
2023/05/10 09:30:42;;;;;;;8.27;2.10;;;;;;;;;;5094412;28;20222;-94
2023/05/10 09:33:10;;;;;;;6.00;1.80;;;;;;;;;;5095000;28;20643;-93
2023/05/10 09:35:39;;;;;;;8.85;2.20;;;;;;;;;;5095287;28;20257;-93
2023/05/10 09:38:07;;;;;;;5.97;2.15;;;;;;;;;;5094898;28;20236;-93
2023/05/10 09:40:34;;;;;;;8.40;1.95;;;;;;;;;;5094445;28;20655;-94
2023/05/10 09:43:03;;;;;;;6.65;1.92;;;;;;;;;;5107442;28;20198;-91
2023/05/10 09:45:31;;;;;;;6.28;2.03;;;;;;;;;;5115413;28;20209;-93
2023/05/10 09:48:00;;;;;;;6.20;1.90;;;;;;;;;;5114802;28;20186;-88
2023/05/10 09:50:28;;;;;;;8.15;2.25;;;;;;;;;;5115141;28;20201;-90
2023/05/10 09:52:58;;;;;;;4.95;2.13;;;;;;;;;;5115129;28;20284;-90
2023/05/10 09:55:26;;;;;;;7.53;1.90;;;;;;;;;;5114350;28;20221;-91
2023/05/10 09:58:01;;;;;;;7.90;2.30;;;;;;;;;;5114716;28;20220;-91
2023/05/10 10:00:28;;;;;;;7.00;2.30;;;;;;;;;;5114757;28;20196;-89
2023/05/10 10:02:56;;;;;;;6.15;2.20;;;;;;;;;;5114927;28;20190;-91
2023/05/10 10:05:29;;;;;;;6.63;2.17;;;;;;;;;;5114808;28;20229;-91
2023/05/10 10:07:59;;;;;;;10.02;2.60;;;;;;;;;;5114577;28;20208;-91
2023/05/10 10:10:26;;;;;;;7.88;2.60;;;;;;;;;;5114258;28;20228;-90
2023/05/10 10:12:54;;;;;;;6.28;2.03;;;;;;;;;;5096868;28;20204;-91
2023/05/10 10:15:22;;;;;;;10.48;2.40;;;;;;;;;;5096385;28;20228;-92
2023/05/10 10:17:50;;;;;;;5.75;2.45;;;;;;;;;;5094202;28;20191;-92
2023/05/10 10:20:17;;;;;;;7.45;2.13;;;;;;;;;;5095569;28;20233;-91
2023/05/10 10:22:45;;;;;;;6.93;2.10;;;;;;;;;;5098881;28;20222;-92
2023/05/10 10:25:15;;;;;;;7.25;2.47;;;;;;;;;;5097810;28;20198;-94
2023/05/10 10:27:47;;;;;;;9.30;2.25;;;;;;;;;;5094235;28;20343;-92
2023/05/10 10:30:19;;;;;;;8.50;2.35;;;;;;;;;;5093779;28;20198;-92
2023/05/10 10:32:56;;;;;;;12.85;2.88;;;;;;;;;;5076049;28;20198;-93
2023/05/10 10:35:23;;;;;;;9.32;2.97;;;;;;;;;;5093423;28;20713;-92
2023/05/10 10:37:52;;;;;;;10.88;2.35;;;;;;;;;;5093588;28;20262;-89
2023/05/10 10:40:28;;;;;;;6.55;2.47;;;;;;;;;;5093578;28;20280;-92
2023/05/10 10:42:55;;;;;;;8.00;2.67;;;;;;;;;;5106107;28;20284;-92
2023/05/10 10:45:23;;;;;;;6.85;2.53;;;;;;;;;;5095842;28;20569;-88
2023/05/10 10:47:55;;;;;;;8.48;2.88;;;;;;;;;;5114188;28;20296;-88
2023/05/10 10:50:22;;;;;;;12.07;2.97;;;;;;;;;;5113877;28;20297;-89
2023/05/10 10:52:52;;;;;;;9.38;2.83;;;;;;;;;;5113695;28;20654;-89
2023/05/10 10:55:22;;;;;;;7.07;2.70;;;;;;;;;;5113943;28;20228;-89
2023/05/10 10:57:52;;;;;;;9.40;2.80;;;;;;;;;;5115387;28;20281;-94
2023/05/10 11:00:26;;;;;;;6.85;2.58;;;;;;;;;;5115377;28;20185;-96
2023/05/10 11:02:55;;;;;;;10.93;3.10;;;;;;;;;;5115245;28;20230;-92
2023/05/10 11:05:26;;;;;;;9.20;2.97;;;;;;;;;;5113500;28;20225;-92
2023/05/10 11:07:54;;;;;;;9.07;2.80;;;;;;;;;;5111886;28;20594;-90
2023/05/10 11:10:21;;;;;;;7.23;2.73;;;;;;;;;;5109787;28;20221;-89
2023/05/10 11:13:01;;;;;;;8.07;2.57;;;;;;;;;;5112278;28;20972;-91
2023/05/10 11:15:31;;;;;;;12.57;9.07;;;;;;;;;;5114128;28;20198;-95
2023/05/10 11:18:03;;;;;;;8.40;2.63;;;;;;;;;;5121539;28;20201;-96
2023/05/10 11:20:33;;;;;;;6.88;2.50;;;;;;;;;;5121027;28;20197;-95
2023/05/10 11:23:12;;;;;;;22.85;13.05;;;;;;;;;;5122660;28;20257;-96
2023/05/10 11:25:43;;;;;;;16.45;7.88;;;;;;;;;;5122793;28;20217;-96
2023/05/10 11:28:12;;;;;;;8.18;3.33;;;;;;;;;;5119585;28;20650;-94
2023/05/10 11:30:39;;;;;;;7.50;2.60;;;;;;;;;;5115711;28;20202;-95
2023/05/10 11:33:07;;;;;;;8.55;3.75;;;;;;;;;;5116255;28;20281;-96
2023/05/10 11:35:39;;;;;;;5.18;2.92;;;;;;;;;;5116444;28;20190;-95
2023/05/10 11:38:08;;;;;;;14.82;3.88;;;;;;;;;;5101895;28;20574;-96
2023/05/10 11:40:35;;;;;;;5.75;2.55;;;;;;;;;;5098993;28;20248;-93
2023/05/10 11:48:23;;;;;;;6.05;2.40;;;;;;;;;;5943819;22;20244;-94
2023/05/10 11:50:51;;;;;;;5.93;2.00;;;;;;;;;;5037829;28;20205;-93
2023/05/10 11:53:18;;;;;;;7.75;1.80;;;;;;;;;;5038212;28;20209;-95
2023/05/10 11:55:46;;;;;;;5.47;1.55;;;;;;;;;;5036434;28;20252;-94
2023/05/10 11:58:13;;;;;;;4.53;1.80;;;;;;;;;;5034667;28;20231;-95
2023/05/10 12:00:41;;;;;;;3.67;1.48;;;;;;;;;;5048035;28;20196;-95
2023/05/10 12:03:10;;;;;;;5.00;1.75;;;;;;;;;;5047507;28;21022;-96
2023/05/10 12:05:41;;;;;;;5.32;1.80;;;;;;;;;;5051521;28;20202;-94
2023/05/10 12:08:15;;;;;;;4.55;1.80;;;;;;;;;;5038918;28;20259;-92
2023/05/10 12:10:43;;;;;;;6.40;2.45;;;;;;;;;;5035647;28;20761;-93
2023/05/10 12:13:15;;;;;;;5.65;2.13;;;;;;;;;;5036787;28;20212;-92
2023/05/10 12:15:43;;;;;;;3.90;2.03;;;;;;;;;;5030206;28;20208;-94
2023/05/10 12:18:11;;;;;;;6.30;2.05;;;;;;;;;;5038163;28;20226;-92
2023/05/10 12:20:41;;;;;;;5.07;1.75;;;;;;;;;;5031491;28;20204;-92
2023/05/10 12:23:10;;;;;;;3.78;1.23;;;;;;;;;;5035978;28;20224;-94
2023/05/10 12:25:38;;;;;;;1.98;1.00;;;;;;;;;;5037267;28;20215;-96
2023/05/10 12:28:06;;;;;;;2.78;1.00;;;;;;;;;;5035825;28;20260;-96
2023/05/10 12:30:35;;;;;;;4.07;1.20;;;;;;;;;;5051503;28;20200;-96
2023/05/10 12:33:03;;;;;;;3.40;1.20;;;;;;;;;;5038728;28;20630;-96
2023/05/10 12:35:32;;;;;;;3.35;1.38;;;;;;;;;;5035141;28;20204;-96
2023/05/10 12:38:01;;;;;;;3.95;1.25;;;;;;;;;;5024476;28;20256;-95
2023/05/10 12:40:29;;;;;;;2.92;0.85;;;;;;;;;;5037115;28;20664;-94
2023/05/10 12:42:56;;;;;;;1.98;0.80;;;;;;;;;;5046846;28;20201;-93
2023/05/10 12:45:24;;;;;;;3.95;0.90;;;;;;;;;;5047378;28;20204;-95
2023/05/10 12:47:51;;;;;;;2.20;0.90;;;;;;;;;;5038831;28;20232;-91
2023/05/10 12:50:19;;;;;;;3.67;0.73;;;;;;;;;;5030388;28;20239;-93
2023/05/10 12:52:46;;;;;;;4.97;1.10;;;;;;;;;;5028146;28;20250;-92
2023/05/10 12:55:15;;;;;;;2.75;0.90;;;;;;;;;;5045066;28;20295;-92
2023/05/10 12:57:42;;;;;;;2.40;0.90;;;;;;;;;;5055596;28;20782;-93
2023/05/10 13:00:10;;;;;;;4.80;1.40;;;;;;;;;;5039528;28;20266;-94
2023/05/10 13:02:38;;;;;;;3.08;1.10;;;;;;;;;;5033772;28;20284;-93
2023/05/10 13:05:06;;;;;;;4.00;1.10;;;;;;;;;;5033377;28;20224;-93
2023/05/10 13:07:33;;;;;;;4.13;1.42;;;;;;;;;;5041185;28;20286;-93
2023/05/10 13:10:00;;;;;;;9.05;1.58;;;;;;;;;;5040131;28;20343;-93
2023/05/10 13:12:29;;;;;;;3.08;1.10;;;;;;;;;;5029360;28;20741;-92
2023/05/10 13:14:57;;;;;;;5.43;3.05;;;;;;;;;;5034643;28;20193;-93
2023/05/10 13:17:24;;;;;;;4.20;1.40;;;;;;;;;;5029191;28;20250;-91
2023/05/10 13:19:52;;;;;;;5.93;1.50;;;;;;;;;;5033918;28;20208;-92
2023/05/10 13:22:19;;;;;;;4.70;1.60;;;;;;;;;;5031318;28;20608;-91
2023/05/10 13:24:47;;;;;;;3.70;1.00;;;;;;;;;;5032914;28;20208;-92
2023/05/10 13:27:15;;;;;;;3.50;1.40;;;;;;;;;;5029877;28;20249;-92
2023/05/10 13:29:44;;;;;;;6.05;1.90;;;;;;;;;;5031388;28;20711;-94
2023/05/10 13:32:11;;;;;;;6.78;1.60;;;;;;;;;;5027229;28;20201;-94
2023/05/10 13:34:38;;;;;;;5.25;1.50;;;;;;;;;;5024914;28;20208;-94
2023/05/10 13:37:14;;;;;;;4.75;1.48;;;;;;;;;;5036008;28;20224;-95
2023/05/10 13:39:41;;;;;;;5.53;1.60;;;;;;;;;;5044907;28;20612;-93
2023/05/10 13:42:09;;;;;;;6.28;1.75;;;;;;;;;;5024302;28;20196;-93
2023/05/10 13:44:38;;;;;;;6.80;1.50;;;;;;;;;;5026565;28;20197;-94
2023/05/10 13:47:10;;;;;;;2.80;1.30;;;;;;;;;;5028523;28;20204;-96
2023/05/10 13:52:29;;;;;;;2.75;1.08;;;;;;;;;;5036345;28;20227;-96
2023/05/10 13:54:57;;;;;;;5.35;1.38;;;;;;;;;;5026074;28;20193;-96
2023/05/10 13:57:24;;;;;;;3.50;1.30;;;;;;;;;;5041823;28;20283;-96
2023/05/10 13:59:52;;;;;;;5.15;1.60;;;;;;;;;;5048481;28;20196;-95
2023/05/10 14:02:20;;;;;;;8.02;1.88;;;;;;;;;;5041796;28;20650;-94
2023/05/10 14:04:49;;;;;;;6.78;2.05;;;;;;;;;;5030505;28;20205;-94
2023/05/10 14:07:17;;;;;;;5.95;1.50;;;;;;;;;;5017016;28;20205;-95
2023/05/10 14:12:27;;;;;;;4.13;1.40;;;;;;;;;;5031922;28;20207;-94
2023/05/10 14:14:55;;;;;;;5.80;1.67;;;;;;;;;;5029164;28;22204;-94
2023/05/10 14:17:23;;;;;;;6.72;1.20;;;;;;;;;;5032672;28;20250;-93
2023/05/10 14:19:51;;;;;;;3.85;1.75;;;;;;;;;;5032055;28;20239;-93
2023/05/10 14:22:18;;;;;;;4.32;1.33;;;;;;;;;;5030032;28;20224;-92
2023/05/10 14:24:47;;;;;;;4.82;1.38;;;;;;;;;;5017407;28;20284;-92
2023/05/10 14:27:15;;;;;;;3.08;0.80;;;;;;;;;;5033795;28;20836;-92
2023/05/10 14:29:42;;;;;;;3.83;0.80;;;;;;;;;;5019423;28;20200;-93
2023/05/10 14:32:10;;;;;;;2.58;1.00;;;;;;;;;;5017053;28;20284;-93
2023/05/10 14:34:39;;;;;;;4.65;1.42;;;;;;;;;;5027583;28;20228;-93
2023/05/10 14:39:47;;;;;;;5.70;1.50;;;;;;;;;;5022313;28;20197;-95
2023/05/10 14:42:15;;;;;;;4.40;1.05;;;;;;;;;;5026137;28;20266;-93
2023/05/10 14:44:42;;;;;;;2.57;1.17;;;;;;;;;;5030372;28;20207;-94
2023/05/10 14:47:10;;;;;;;3.87;1.10;;;;;;;;;;5033818;28;20204;-92
2023/05/10 14:49:39;;;;;;;5.13;1.40;;;;;;;;;;5038678;28;20224;-91
2023/05/10 14:52:06;;;;;;;4.63;1.80;;;;;;;;;;5022645;28;20224;-91
2023/05/10 14:54:34;;;;;;;5.50;1.80;;;;;;;;;;5020369;28;20666;-94
2023/05/10 14:57:01;;;;;;;5.37;2.00;;;;;;;;;;5033583;28;20220;-92